Current Conditions
Scattered
Clouds



Pressure
1000 (hPa) - 29.53 (inHG)
Visibility

9.7 (km) - 6.0 (miles)
Temperature
15  °C
Temperature
9  °C
Dewpoint
68  %
 Humidity
Wind Speed
21  km/h
11  kts
13  mph
5.8  m/s
Wind Direction
N
45°
E
90°
135°
S
180°
225°
W
270°
315°
 170°

Due South
Airport Data
LIRQ
Peretola Airport
Metar :LIRQ 230650Z 17011G22KT 150V210 9999 SCT040 BKN080 15/09 Q1000
Fri 23rd February 07:50 am
Raw Metar Info
Raw METAR is the most common format in the world for the transmission of observational weather data. It is highly standardized through the International Civil Aviation Organization (ICAO), which allows it to be understood throughout most of the world.
API Info
Data Provided by
https://www.checkwx.com/weather/LIRQ

Aviation Weather providing METAR, TAF, AIRMET, SIGMET and OUTLOOK Weather Reports
© Info
CSS/SVG/PHP scripts were developed by weather34.com for use in the weather34 template © 2015-2024

Guide Info provided by Metar-Wikipedia